Time;durP1;ratioP1;P1;durP2;ratioP2;P2;SDS_P1;SDS_P2;PMS_P1;PMS_P2;Temp;Humidity;BMP_temperature;BMP_pressure;BME280_temperature;BME280_humidity;BME280_pressure;Samples;Min_cycle;Max_cycle;Signal;HPM_P1;HPM_P2
2021/08/02 00:01:53;;;;;;;1.15;0.77;;;;;;;22.37;54.81;101330.66;5095499;28;20019;-71
2021/08/02 00:04:23;;;;;;;1.45;0.63;;;;;;;22.40;54.63;101330.59;5114340;28;20403;-71
2021/08/02 00:06:55;;;;;;;1.02;0.63;;;;;;;22.36;54.78;101330.66;5117910;28;20073;-72
2021/08/02 00:09:30;;;;;;;0.82;0.80;;;;;;;22.38;54.70;101337.66;5117909;28;20020;-72
2021/08/02 00:12:03;;;;;;;1.17;0.82;;;;;;;22.39;54.75;101341.16;5099552;28;20031;-72
2021/08/02 00:14:29;;;;;;;1.10;0.65;;;;;;;22.37;54.80;101335.03;5099447;28;20418;-72
2021/08/02 00:16:55;;;;;;;1.67;0.77;;;;;;;22.38;54.70;101332.38;5099568;28;20432;-72
2021/08/02 00:19:21;;;;;;;0.95;0.68;;;;;;;22.35;54.66;101334.19;5099675;28;20038;-72
2021/08/02 00:21:47;;;;;;;0.90;0.80;;;;;;;22.34;54.63;101338.56;5099623;28;20028;-72
2021/08/02 00:24:14;;;;;;;0.65;0.57;;;;;;;22.38;54.64;101336.78;5082436;28;20035;-72
2021/08/02 00:26:40;;;;;;;1.30;0.80;;;;;;;22.37;54.70;101335.91;5099177;28;20026;-72
2021/08/02 00:29:07;;;;;;;2.05;1.00;;;;;;;22.34;54.63;101340.34;5117390;28;20031;-72
2021/08/02 00:31:33;;;;;;;1.00;0.60;;;;;;;22.38;54.63;101344.69;5099002;28;20545;-72
2021/08/02 00:33:58;;;;;;;0.90;0.60;;;;;;;22.34;54.81;101340.34;5117156;28;20028;-72
2021/08/02 00:36:39;;;;;;;0.98;0.75;;;;;;;22.36;54.63;101344.69;5117239;28;20028;-72
2021/08/02 00:39:37;;;;;;;0.82;0.63;;;;;;;22.35;54.53;101342.09;5117231;28;20023;-74
2021/08/02 00:42:09;;;;;;;0.90;0.70;;;;;;;22.36;54.71;101344.69;5098876;28;20107;-73
2021/08/02 00:45:06;;;;;;;0.70;0.65;;;;;;;22.34;54.75;101341.22;5117245;28;20051;-73
2021/08/02 00:47:58;;;;;;;1.02;0.68;;;;;;;22.33;54.61;101347.38;5098717;28;20024;-73
2021/08/02 00:50:28;;;;;;;1.58;0.80;;;;;;;22.33;54.48;101339.47;5099078;28;20043;-73
2021/08/02 00:53:04;;;;;;;0.95;0.52;;;;;;;22.34;54.42;101346.47;5098715;28;20031;-73
2021/08/02 00:55:33;;;;;;;1.08;0.60;;;;;;;22.36;54.76;101354.38;5098887;28;20030;-73
2021/08/02 00:58:04;;;;;;;1.15;0.77;;;;;;;22.35;54.74;101350.00;5098386;28;20055;-73
2021/08/02 01:00:30;;;;;;;1.48;0.90;;;;;;;22.31;54.77;101346.56;5117173;28;20058;-73
2021/08/02 01:02:57;;;;;;;0.90;0.50;;;;;;;22.33;54.63;101352.66;5116755;28;20024;-73
2021/08/02 01:05:23;;;;;;;2.50;1.80;;;;;;;22.35;54.61;101353.50;5098663;28;20362;-73
2021/08/02 01:08:03;;;;;;;1.27;0.90;;;;;;;22.34;54.67;101357.03;5116945;28;20493;-73
2021/08/02 01:10:32;;;;;;;1.20;0.70;;;;;;;22.35;54.53;101355.25;5098632;28;20073;-71
2021/08/02 01:13:00;;;;;;;1.38;0.70;;;;;;;22.31;54.66;101357.09;5116676;28;20031;-72
2021/08/02 01:15:26;;;;;;;0.57;0.50;;;;;;;22.33;54.56;101363.19;5098599;28;20051;-72
2021/08/02 01:17:55;;;;;;;0.77;0.52;;;;;;;22.32;54.70;101353.56;5098410;28;20466;-72
2021/08/02 01:20:20;;;;;;;1.00;0.60;;;;;;;22.31;54.44;101354.44;5098354;28;20023;-72
2021/08/02 01:22:48;;;;;;;0.65;0.50;;;;;;;22.31;54.57;101351.81;5081717;28;20096;-73
2021/08/02 01:25:32;;;;;;;1.50;0.90;;;;;;;22.33;54.71;101357.06;5098284;28;20466;-72
2021/08/02 01:28:12;;;;;;;0.70;0.55;;;;;;;22.34;54.63;101356.16;5116328;28;20028;-72
2021/08/02 01:30:38;;;;;;;1.55;0.77;;;;;;;22.29;54.53;101356.22;5098192;28;20457;-73
2021/08/02 01:33:03;;;;;;;2.33;0.80;;;;;;;22.31;54.60;101362.34;5119729;28;20115;-74
2021/08/02 01:35:29;;;;;;;0.77;0.52;;;;;;;22.30;54.75;101355.34;5084723;28;20062;-74
2021/08/02 01:37:56;;;;;;;1.38;0.80;;;;;;;22.32;54.35;101360.59;5099436;28;20028;-72
2021/08/02 01:40:22;;;;;;;1.00;0.80;;;;;;;22.32;54.75;101357.97;5117459;28;20024;-73
2021/08/02 01:42:48;;;;;;;1.35;1.13;;;;;;;22.32;54.63;101363.22;5118059;28;20026;-72
2021/08/02 01:45:13;;;;;;;0.75;0.70;;;;;;;22.27;54.60;101355.38;5117019;28;20035;-72
2021/08/02 01:47:57;;;;;;;2.28;0.70;;;;;;;22.31;54.56;101349.19;5116218;28;20128;-72
2021/08/02 01:50:44;;;;;;;0.82;0.70;;;;;;;22.31;54.64;101348.31;5097808;28;20058;-72
2021/08/02 01:53:10;;;;;;;0.77;0.52;;;;;;;22.31;54.53;101354.44;5097489;28;20394;-72
2021/08/02 01:55:36;;;;;;;0.80;0.50;;;;;;;22.28;54.57;101345.72;5097608;28;20024;-72
2021/08/02 01:58:07;;;;;;;0.85;0.52;;;;;;;22.29;54.47;101353.59;5097639;28;20047;-73
2021/08/02 02:00:38;;;;;;;0.85;0.60;;;;;;;22.26;54.61;101347.47;5115785;28;20036;-74
2021/08/02 02:03:35;;;;;;;1.15;0.60;;;;;;;22.30;54.48;101357.97;5115958;28;20098;-74
2021/08/02 02:06:03;;;;;;;1.13;0.75;;;;;;;22.26;54.60;101350.13;5095520;28;20798;-73
2021/08/02 02:08:35;;;;;;;0.90;0.77;;;;;;;22.30;54.43;101360.63;5081048;28;20195;-74
2021/08/02 02:11:02;;;;;;;1.30;0.50;;;;;;;22.30;54.44;101355.34;5097257;28;20023;-74
2021/08/02 02:13:31;;;;;;;1.15;0.70;;;;;;;22.28;54.53;101359.75;5097254;28;20023;-74
2021/08/02 02:16:00;;;;;;;1.20;0.60;;;;;;;22.29;54.66;101363.25;5097053;28;20020;-74
2021/08/02 02:18:27;;;;;;;0.60;0.60;;;;;;;22.29;54.53;101363.25;5097562;28;20030;-74
2021/08/02 02:20:54;;;;;;;0.95;0.68;;;;;;;22.27;54.54;101368.53;5097509;28;20448;-74
2021/08/02 02:23:20;;;;;;;0.75;0.55;;;;;;;22.25;54.65;101367.69;5115582;28;20066;-74
2021/08/02 02:25:47;;;;;;;0.95;0.70;;;;;;;22.28;54.57;101367.66;5097501;28;20032;-74
2021/08/02 02:28:12;;;;;;;1.08;0.63;;;;;;;22.28;54.53;101361.50;5114654;28;20027;-74
2021/08/02 02:30:40;;;;;;;1.65;0.93;;;;;;;22.23;54.46;101364.19;5097391;28;20028;-74
2021/08/02 02:33:07;;;;;;;0.88;0.73;;;;;;;22.24;54.56;101360.66;5096880;28;20390;-74
2021/08/02 02:35:33;;;;;;;0.50;0.50;;;;;;;22.26;54.51;101366.81;5063523;28;20047;-74
2021/08/02 02:37:59;;;;;;;1.35;0.70;;;;;;;22.24;54.44;101365.06;5097232;28;20028;-72
2021/08/02 02:40:25;;;;;;;0.45;0.40;;;;;;;22.26;54.50;101361.53;5096946;28;20095;-72
2021/08/02 02:42:50;;;;;;;1.10;0.73;;;;;;;22.19;54.40;101346.69;5118291;28;20023;-72
2021/08/02 02:45:16;;;;;;;0.85;0.68;;;;;;;22.24;54.60;101360.66;5114405;28;20032;-73
2021/08/02 02:47:45;;;;;;;1.67;0.80;;;;;;;22.25;54.42;101356.28;5121963;28;20031;-71
2021/08/02 02:50:11;;;;;;;0.60;0.50;;;;;;;22.25;54.39;101356.28;5130046;28;20057;-72
2021/08/02 02:52:36;;;;;;;1.45;0.70;;;;;;;22.23;54.66;101352.78;5080061;28;20027;-72
2021/08/02 02:55:05;;;;;;;0.82;0.63;;;;;;;22.23;54.47;101353.66;5079704;28;20473;-74
2021/08/02 02:57:30;;;;;;;0.70;0.60;;;;;;;22.25;54.40;101359.78;5114795;28;20089;-74
2021/08/02 02:59:56;;;;;;;0.68;0.40;;;;;;;22.26;54.48;101352.75;5096429;28;20039;-74
2021/08/02 03:02:22;;;;;;;1.70;0.70;;;;;;;22.24;54.44;101357.16;5114773;28;20026;-74
2021/08/02 03:04:51;;;;;;;1.27;0.60;;;;;;;22.24;54.23;101360.66;5114649;28;20093;-72
2021/08/02 03:07:17;;;;;;;0.40;0.40;;;;;;;22.24;54.53;101362.44;5079728;28;20030;-72
2021/08/02 03:09:45;;;;;;;0.40;0.40;;;;;;;22.21;54.38;101360.69;5079935;28;20035;-72
2021/08/02 03:12:11;;;;;;;0.63;0.50;;;;;;;22.22;54.42;101361.56;5114540;28;20522;-72
2021/08/02 03:14:37;;;;;;;0.80;0.60;;;;;;;22.23;54.48;101366.81;5079402;28;20023;-73
2021/08/02 03:17:06;;;;;;;0.90;0.80;;;;;;;22.25;54.29;101374.72;5114425;28;20032;-72
2021/08/02 03:19:31;;;;;;;0.93;0.73;;;;;;;22.24;54.39;101371.22;5096212;28;20031;-73
2021/08/02 03:21:58;;;;;;;1.27;0.80;;;;;;;22.23;54.50;101373.84;5096185;28;20024;-74
2021/08/02 03:24:27;;;;;;;0.75;0.70;;;;;;;22.22;54.74;101374.75;5114302;28;20394;-74
2021/08/02 03:27:02;;;;;;;0.93;0.55;;;;;;;22.21;54.42;101375.63;5096300;28;20020;-74
2021/08/02 03:29:36;;;;;;;0.65;0.60;;;;;;;22.17;54.38;101361.66;5114399;28;20419;-74
2021/08/02 03:32:08;;;;;;;0.55;0.38;;;;;;;22.23;54.62;101373.84;5114452;28;20366;-74
2021/08/02 03:34:35;;;;;;;0.80;0.60;;;;;;;22.22;54.51;101370.34;5096004;28;20031;-74
2021/08/02 03:37:05;;;;;;;0.85;0.63;;;;;;;22.15;54.46;101359.91;5114128;28;20032;-74
2021/08/02 03:39:32;;;;;;;1.35;0.70;;;;;;;22.21;54.50;101370.38;5095789;28;20023;-74
2021/08/02 03:41:58;;;;;;;0.60;0.50;;;;;;;22.19;54.43;101367.78;5095970;28;20024;-74
2021/08/02 03:44:26;;;;;;;0.57;0.43;;;;;;;22.21;54.29;101375.63;5079286;28;20020;-74
2021/08/02 03:46:54;;;;;;;0.75;0.40;;;;;;;22.20;54.24;101368.66;5095936;28;20111;-74
2021/08/02 03:49:20;;;;;;;0.65;0.60;;;;;;;22.13;54.57;101364.34;5095673;28;20492;-74
2021/08/02 03:51:49;;;;;;;1.02;0.60;;;;;;;22.16;54.65;101378.34;5062558;28;20020;-74
2021/08/02 03:54:16;;;;;;;0.55;0.43;;;;;;;22.20;54.38;101381.81;5113817;28;20454;-74
2021/08/02 03:56:46;;;;;;;0.73;0.40;;;;;;;22.17;54.37;101373.94;5078874;28;20047;-74
2021/08/02 03:59:12;;;;;;;2.25;0.73;;;;;;;22.19;54.46;101383.59;5095609;28;20024;-74
2021/08/02 04:01:42;;;;;;;0.98;0.50;;;;;;;22.20;54.67;101390.56;5113842;28;20110;-74
2021/08/02 04:04:08;;;;;;;0.60;0.50;;;;;;;22.19;54.31;101391.50;5113895;28;20096;-73
2021/08/02 04:06:35;;;;;;;0.70;0.63;;;;;;;22.19;54.25;101387.97;5113933;28;20106;-73
2021/08/02 04:09:02;;;;;;;1.30;0.70;;;;;;;22.20;54.33;101390.56;5113918;28;20031;-73
2021/08/02 04:11:27;;;;;;;1.10;0.75;;;;;;;22.17;54.47;101393.25;5095687;28;20080;-74
2021/08/02 04:13:53;;;;;;;0.60;0.50;;;;;;;22.18;54.32;101387.09;5078555;28;20425;-74
2021/08/02 04:16:18;;;;;;;0.90;0.60;;;;;;;22.21;54.35;101392.31;5095682;28;20546;-74
2021/08/02 04:18:43;;;;;;;0.63;0.47;;;;;;;22.16;54.21;101388.88;5113851;28;20028;-74
2021/08/02 04:21:09;;;;;;;0.82;0.70;;;;;;;22.19;54.32;101394.13;5095693;28;20485;-74
2021/08/02 04:23:34;;;;;;;0.55;0.43;;;;;;;22.21;54.30;101394.06;5095604;28;20024;-74
2021/08/02 04:25:59;;;;;;;1.00;0.70;;;;;;;22.18;54.24;101394.13;5113732;28;20076;-72
2021/08/02 04:28:25;;;;;;;0.63;0.63;;;;;;;22.18;54.46;101397.66;5095237;28;20035;-72
2021/08/02 04:30:50;;;;;;;0.88;0.63;;;;;;;22.21;54.25;101399.34;5078267;28;20388;-72
2021/08/02 04:33:17;;;;;;;1.33;0.50;;;;;;;22.20;54.19;101397.63;5078397;28;20466;-72
2021/08/02 04:35:43;;;;;;;0.88;0.68;;;;;;;22.19;54.31;101402.03;5078619;28;20115;-72
2021/08/02 04:38:08;;;;;;;0.90;0.50;;;;;;;22.18;54.26;101402.03;5095393;28;20100;-72
2021/08/02 04:40:33;;;;;;;1.00;0.90;;;;;;;22.20;54.35;101400.25;5095275;28;20043;-72
2021/08/02 04:42:59;;;;;;;1.08;0.50;;;;;;;22.19;54.23;101404.66;5113697;28;20069;-72
2021/08/02 04:45:24;;;;;;;0.57;0.40;;;;;;;22.19;54.25;101401.16;5096666;28;20024;-72
2021/08/02 04:47:51;;;;;;;0.73;0.50;;;;;;;22.21;54.32;101407.25;5079000;28;20031;-72
2021/08/02 04:50:17;;;;;;;0.60;0.50;;;;;;;22.14;54.34;101403.81;5113988;28;20023;-73
2021/08/02 04:52:43;;;;;;;1.30;0.60;;;;;;;22.20;54.33;101414.28;5118635;28;20027;-72
2021/08/02 04:55:08;;;;;;;1.00;0.60;;;;;;;22.19;54.29;101412.56;5099331;28;20035;-72
2021/08/02 04:57:34;;;;;;;0.95;0.70;;;;;;;22.16;54.16;101403.81;5081666;28;20083;-72
2021/08/02 04:59:59;;;;;;;0.63;0.60;;;;;;;22.17;54.12;101421.38;5081812;28;20397;-72
2021/08/02 05:02:25;;;;;;;0.60;0.52;;;;;;;22.19;54.26;101417.84;5081781;28;20089;-72
2021/08/02 05:04:51;;;;;;;0.70;0.60;;;;;;;22.14;54.14;101410.84;5117036;28;20023;-72
2021/08/02 05:07:16;;;;;;;0.65;0.50;;;;;;;22.13;54.22;101403.84;5098620;28;20118;-72
2021/08/02 05:09:42;;;;;;;0.60;0.60;;;;;;;22.17;54.07;101418.72;5116861;28;20358;-72
2021/08/02 05:12:08;;;;;;;0.77;0.47;;;;;;;22.19;54.16;101423.09;5081863;28;20028;-72
2021/08/02 05:14:33;;;;;;;0.90;0.35;;;;;;;22.14;54.22;101409.09;5116698;28;20382;-72
2021/08/02 05:16:58;;;;;;;1.35;0.60;;;;;;;22.12;54.23;101413.50;5098518;28;20035;-72
2021/08/02 05:19:24;;;;;;;1.02;0.77;;;;;;;22.19;54.19;101425.75;5098476;28;20426;-72
2021/08/02 05:21:49;;;;;;;0.57;0.50;;;;;;;22.20;54.17;101426.63;5116436;28;20431;-72
2021/08/02 05:24:14;;;;;;;1.35;0.60;;;;;;;22.16;54.13;101419.63;5081539;28;20039;-72
2021/08/02 05:26:40;;;;;;;1.27;0.80;;;;;;;22.14;54.32;101422.25;5098193;28;20416;-72
2021/08/02 05:29:05;;;;;;;0.40;0.40;;;;;;;22.18;53.95;101423.13;5098219;28;20027;-72
2021/08/02 05:31:31;;;;;;;0.90;0.60;;;;;;;22.17;54.06;101424.88;5098345;28;20027;-72
2021/08/02 05:33:56;;;;;;;0.45;0.40;;;;;;;22.19;54.01;101438.03;5098148;28;20032;-72
2021/08/02 05:36:22;;;;;;;0.68;0.60;;;;;;;22.19;54.12;101441.53;5098182;28;20028;-72
2021/08/02 05:38:48;;;;;;;1.17;0.63;;;;;;;22.16;54.19;101427.53;5116268;28;20033;-72
2021/08/02 05:41:13;;;;;;;0.77;0.50;;;;;;;22.17;54.14;101431.91;5097912;28;20034;-72
2021/08/02 05:43:38;;;;;;;0.93;0.50;;;;;;;22.20;54.10;101435.34;5081121;28;20115;-72
2021/08/02 05:46:05;;;;;;;0.65;0.40;;;;;;;22.17;54.17;101440.69;5097888;28;20038;-72
2021/08/02 05:48:30;;;;;;;0.75;0.60;;;;;;;22.19;54.09;101440.66;5115852;28;20571;-72
2021/08/02 05:50:56;;;;;;;1.23;0.70;;;;;;;22.13;54.09;101427.53;5080732;28;20118;-71
2021/08/02 05:53:21;;;;;;;0.90;0.55;;;;;;;22.21;54.10;101449.41;5080835;28;20051;-71
2021/08/02 05:55:46;;;;;;;1.33;0.70;;;;;;;22.20;54.11;101440.63;5097802;28;20539;-72
2021/08/02 05:58:12;;;;;;;1.52;0.75;;;;;;;22.20;54.06;101445.06;5097168;28;20078;-71
2021/08/02 06:00:38;;;;;;;0.80;0.60;;;;;;;22.17;53.99;101438.06;5097541;28;20043;-72
2021/08/02 06:03:04;;;;;;;0.40;0.40;;;;;;;22.20;54.29;101443.25;5114614;28;20016;-73
2021/08/02 06:05:29;;;;;;;0.52;0.52;;;;;;;22.18;54.07;101444.19;5097437;28;20031;-71
2021/08/02 06:07:55;;;;;;;0.80;0.55;;;;;;;22.19;54.14;101440.66;5080616;28;20045;-72
2021/08/02 06:10:20;;;;;;;1.00;0.68;;;;;;;22.20;53.95;101445.06;5097591;28;20390;-72
2021/08/02 06:12:45;;;;;;;0.93;0.75;;;;;;;22.22;54.08;101448.50;5097311;28;20024;-72
2021/08/02 06:15:11;;;;;;;0.60;0.50;;;;;;;22.18;54.09;101447.69;5098105;28;20063;-72
2021/08/02 06:17:37;;;;;;;1.50;0.50;;;;;;;22.20;53.94;101445.88;5081452;28;20381;-72
2021/08/02 06:20:04;;;;;;;0.75;0.47;;;;;;;22.22;53.89;101446.75;5098004;28;20143;-72
2021/08/02 06:22:29;;;;;;;1.23;0.88;;;;;;;22.20;53.97;101447.69;5080849;28;20126;-72
2021/08/02 06:24:54;;;;;;;0.77;0.60;;;;;;;22.16;54.08;101438.94;5080305;28;20023;-72
2021/08/02 06:27:20;;;;;;;1.30;0.65;;;;;;;22.22;54.02;101452.03;5097378;28;20152;-72
2021/08/02 06:29:45;;;;;;;0.80;0.63;;;;;;;22.18;54.00;101442.44;5115283;28;20351;-72
2021/08/02 06:32:11;;;;;;;1.30;0.80;;;;;;;22.23;54.00;101453.78;5115634;28;20445;-72
2021/08/02 06:34:36;;;;;;;0.68;0.55;;;;;;;22.24;53.89;101449.38;5115358;28;20032;-72
2021/08/02 06:37:02;;;;;;;0.60;0.50;;;;;;;22.24;53.80;101452.00;5097318;28;20023;-72
2021/08/02 06:39:27;;;;;;;0.90;0.60;;;;;;;22.25;53.85;101453.75;5115313;28;20029;-72
2021/08/02 06:41:53;;;;;;;1.05;0.60;;;;;;;22.23;53.95;101452.91;5114988;28;20382;-72
2021/08/02 06:44:18;;;;;;;0.77;0.60;;;;;;;22.25;53.83;101453.75;5115301;28;20449;-72
2021/08/02 06:46:44;;;;;;;0.82;0.52;;;;;;;22.27;53.82;101446.72;5097161;28;20057;-72
2021/08/02 06:49:09;;;;;;;0.93;0.70;;;;;;;22.26;53.41;101445.84;5079889;28;20028;-72
2021/08/02 06:51:34;;;;;;;1.25;0.85;;;;;;;22.28;53.86;101449.34;5079999;28;20062;-72
2021/08/02 06:54:00;;;;;;;0.98;0.70;;;;;;;22.28;53.71;101445.81;5097034;28;20485;-72
2021/08/02 06:56:25;;;;;;;1.63;0.85;;;;;;;22.29;53.66;101451.09;5097208;28;20035;-72
2021/08/02 06:58:51;;;;;;;1.35;0.55;;;;;;;22.32;53.67;101455.44;5093019;28;20080;-72
2021/08/02 07:01:17;;;;;;;1.30;0.85;;;;;;;22.33;53.57;101458.03;5093576;28;20040;-73
2021/08/02 07:03:42;;;;;;;1.55;0.70;;;;;;;22.33;53.47;101457.19;5110219;28;20054;-72
2021/08/02 07:06:08;;;;;;;1.40;0.68;;;;;;;22.30;53.50;101458.09;5059465;28;20032;-73
2021/08/02 07:08:36;;;;;;;0.80;0.60;;;;;;;22.32;53.47;101464.22;5076368;28;20119;-72
2021/08/02 07:11:01;;;;;;;0.52;0.50;;;;;;;22.33;53.46;101475.66;5092944;28;20385;-72
2021/08/02 07:13:28;;;;;;;0.70;0.70;;;;;;;22.33;53.45;101476.50;5092585;28;20118;-73
2021/08/02 07:15:53;;;;;;;0.68;0.52;;;;;;;22.32;53.53;101474.78;5094237;28;20039;-73
2021/08/02 07:18:23;;;;;;;0.65;0.40;;;;;;;22.27;53.43;101466.03;5110488;28;20031;-73
2021/08/02 07:20:51;;;;;;;0.93;0.57;;;;;;;22.31;53.43;101478.28;5077224;28;20024;-73
2021/08/02 07:23:16;;;;;;;0.68;0.55;;;;;;;22.33;53.37;101481.75;5079684;28;20161;-73
2021/08/02 07:25:43;;;;;;;0.80;0.50;;;;;;;22.34;53.41;101482.63;5095535;28;20065;-72
2021/08/02 07:28:08;;;;;;;0.75;0.63;;;;;;;22.35;53.42;101482.63;5112290;28;20055;-73
2021/08/02 07:30:34;;;;;;;1.13;0.75;;;;;;;22.35;53.38;101477.34;5093651;28;20081;-73
2021/08/02 07:33:00;;;;;;;0.70;0.63;;;;;;;22.36;53.32;101480.84;5110660;28;20085;-72
2021/08/02 07:35:27;;;;;;;0.43;0.32;;;;;;;22.36;53.30;101476.47;5077355;28;20028;-72
2021/08/02 07:37:53;;;;;;;0.70;0.50;;;;;;;22.38;53.25;101481.72;5093959;28;20023;-72
2021/08/02 07:40:18;;;;;;;1.05;0.60;;;;;;;22.41;53.10;101487.84;5094767;28;20096;-71
2021/08/02 07:42:43;;;;;;;1.42;0.80;;;;;;;22.40;53.04;101478.19;5093288;28;20028;-72
2021/08/02 07:45:09;;;;;;;0.47;0.43;;;;;;;22.45;53.17;101486.06;5076507;28;20036;-72
2021/08/02 07:47:37;;;;;;;0.95;0.70;;;;;;;22.33;53.29;101473.84;5093331;28;20039;-72
2021/08/02 07:50:04;;;;;;;1.27;0.88;;;;;;;22.45;53.11;101492.19;5093724;28;20226;-72
2021/08/02 07:52:31;;;;;;;1.00;0.77;;;;;;;22.45;53.04;101491.31;5093754;28;20482;-72
2021/08/02 07:54:58;;;;;;;0.65;0.50;;;;;;;22.44;52.69;101486.94;5060425;28;20478;-73
2021/08/02 07:57:23;;;;;;;1.23;0.70;;;;;;;22.51;53.01;101485.97;5094283;28;20055;-72
2021/08/02 07:59:48;;;;;;;0.68;0.52;;;;;;;22.48;52.95;101480.72;5111533;28;20040;-73
2021/08/02 08:02:17;;;;;;;1.40;0.70;;;;;;;22.51;52.84;101482.44;5095486;28;20382;-73
2021/08/02 08:04:43;;;;;;;0.98;0.60;;;;;;;22.52;52.72;101468.38;5076173;28;20038;-73
2021/08/02 08:07:08;;;;;;;1.02;0.70;;;;;;;22.67;52.66;101486.66;5093455;28;20032;-73
2021/08/02 08:09:34;;;;;;;1.00;0.60;;;;;;;22.62;52.64;101481.44;5094656;28;20036;-72
2021/08/02 08:12:00;;;;;;;0.93;0.70;;;;;;;22.65;52.82;101477.91;5077018;28;20056;-74
2021/08/02 08:14:26;;;;;;;0.60;0.52;;;;;;;22.74;52.75;101493.59;5093844;28;20043;-72
2021/08/02 08:16:52;;;;;;;1.58;0.90;;;;;;;22.79;52.39;101489.19;5094477;28;20028;-73
2021/08/02 08:19:17;;;;;;;1.48;0.90;;;;;;;22.71;52.50;101485.75;5094303;28;20061;-72
2021/08/02 08:21:43;;;;;;;0.77;0.60;;;;;;;22.78;52.32;101484.78;5094325;28;20371;-72
2021/08/02 08:24:09;;;;;;;1.83;0.50;;;;;;;22.82;52.43;101493.53;5094417;28;20025;-73
2021/08/02 08:26:35;;;;;;;2.00;0.80;;;;;;;22.83;52.21;101490.03;5095525;28;20487;-72
2021/08/02 08:29:01;;;;;;;1.90;0.80;;;;;;;22.86;52.16;101484.69;5079877;28;20114;-72
2021/08/02 08:31:28;;;;;;;0.80;0.60;;;;;;;22.87;52.43;101491.72;5097080;28;20035;-72
2021/08/02 08:33:55;;;;;;;0.85;0.50;;;;;;;22.89;52.38;101482.00;5113643;28;20028;-72
2021/08/02 08:36:21;;;;;;;1.17;0.75;;;;;;;22.88;52.22;101480.28;5096640;28;20115;-72
2021/08/02 08:38:47;;;;;;;1.00;0.55;;;;;;;22.85;52.28;101483.81;5096899;28;20165;-72
2021/08/02 08:41:21;;;;;;;0.95;0.80;;;;;;;22.85;52.13;101480.34;5097148;28;20039;-71
2021/08/02 08:44:05;;;;;;;0.90;0.70;;;;;;;22.89;52.04;101493.44;5098305;28;20016;-73
2021/08/02 08:46:30;;;;;;;;;;;;;;;22.91;52.06;101496.94;5097574;28;20024;-72
2021/08/02 08:48:56;;;;;;;0.40;0.40;;;;;;;22.93;52.07;101495.16;5096149;28;20281;-72
2021/08/02 08:51:22;;;;;;;1.05;0.70;;;;;;;22.94;52.10;101502.19;5095893;28;20046;-72
2021/08/02 08:53:48;;;;;;;0.90;0.63;;;;;;;22.91;52.13;101488.16;5095434;28;20031;-72
2021/08/02 08:56:18;;;;;;;2.60;0.70;;;;;;;22.91;52.10;101488.16;5095592;28;20032;-72
2021/08/02 08:58:44;;;;;;;0.77;0.60;;;;;;;22.88;52.16;101496.97;5078590;28;20044;-73
2021/08/02 09:01:10;;;;;;;0.90;0.82;;;;;;;22.91;52.15;101502.22;5095521;28;20557;-72
2021/08/02 09:03:35;;;;;;;0.93;0.52;;;;;;;22.95;52.09;101503.06;5112704;28;20099;-72
2021/08/02 09:06:09;;;;;;;1.05;0.95;;;;;;;22.91;52.06;101501.34;5096517;28;20370;-72
2021/08/02 09:08:42;;;;;;;1.52;0.63;;;;;;;22.91;52.13;101502.22;5096709;28;20069;-72
2021/08/02 09:11:08;;;;;;;1.08;0.77;;;;;;;22.94;52.12;101504.81;5095208;28;20477;-72
2021/08/02 09:13:36;;;;;;;1.38;0.82;;;;;;;22.89;52.00;101506.63;5096409;28;20067;-72
2021/08/02 09:16:16;;;;;;;0.85;0.50;;;;;;;22.87;52.28;101499.63;5095132;28;20082;-72
2021/08/02 09:18:56;;;;;;;1.33;0.90;;;;;;;22.91;52.10;101509.25;5112018;28;20042;-72
2021/08/02 09:21:21;;;;;;;0.95;0.80;;;;;;;22.89;52.16;101500.47;5095525;28;20046;-73
2021/08/02 09:23:52;;;;;;;0.82;0.70;;;;;;;22.88;51.96;101502.25;5096557;28;20073;-73
2021/08/02 09:26:32;;;;;;;0.57;0.50;;;;;;;22.92;52.15;101506.59;5096599;28;20031;-73
2021/08/02 09:28:58;;;;;;;0.73;0.63;;;;;;;22.93;51.89;101507.47;5095036;28;20028;-74
2021/08/02 09:31:50;;;;;;;1.10;0.65;;;;;;;22.90;52.13;101511.00;5096071;28;20042;-74
2021/08/02 09:34:15;;;;;;;1.60;0.77;;;;;;;22.92;52.23;101511.00;5092055;28;20047;-74
2021/08/02 09:36:43;;;;;;;0.63;0.55;;;;;;;22.91;52.13;101515.41;5111680;28;20035;-72
2021/08/02 09:39:14;;;;;;;1.02;0.65;;;;;;;22.91;52.12;101514.53;5095986;28;20032;-73
2021/08/02 09:41:41;;;;;;;0.82;0.68;;;;;;;22.89;52.08;101517.16;5096488;28;20023;-73
2021/08/02 09:44:06;;;;;;;0.60;0.45;;;;;;;22.90;52.10;101518.91;5119799;28;20079;-72
2021/08/02 09:46:32;;;;;;;0.40;0.40;;;;;;;22.86;52.25;101516.31;5108300;28;20035;-72
2021/08/02 09:49:03;;;;;;;1.15;0.70;;;;;;;22.86;52.15;101521.59;5099790;28;20035;-72
2021/08/02 09:51:41;;;;;;;2.58;0.80;;;;;;;22.87;52.20;101521.59;5097303;28;20027;-72
2021/08/02 09:54:06;;;;;;;0.88;0.52;;;;;;;22.84;52.13;101519.00;5095200;28;20035;-72
2021/08/02 09:56:32;;;;;;;1.08;0.70;;;;;;;22.85;52.11;101520.72;5094580;28;20119;-72
2021/08/02 09:58:58;;;;;;;1.10;0.57;;;;;;;22.82;52.19;101519.91;5077109;28;20502;-72
2021/08/02 10:01:23;;;;;;;1.20;0.90;;;;;;;22.85;52.28;101530.44;5077307;28;20118;-74
2021/08/02 10:03:49;;;;;;;0.60;0.50;;;;;;;22.79;52.28;101516.41;5095442;28;20103;-74
2021/08/02 10:06:15;;;;;;;0.95;0.70;;;;;;;22.84;52.11;101531.31;5095420;28;20047;-74
2021/08/02 10:08:41;;;;;;;0.77;0.55;;;;;;;22.83;52.30;101525.19;5095836;28;20020;-74
2021/08/02 10:11:08;;;;;;;0.77;0.50;;;;;;;22.83;51.94;101527.81;5094001;28;20028;-74
2021/08/02 10:13:43;;;;;;;0.85;0.50;;;;;;;22.83;52.21;101532.22;5095143;28;20026;-74
2021/08/02 10:16:12;;;;;;;3.05;0.70;;;;;;;22.80;52.25;101522.56;5095533;28;20047;-74
2021/08/02 10:18:38;;;;;;;1.13;0.70;;;;;;;22.83;51.85;101524.31;5093877;28;20107;-74
2021/08/02 10:21:11;;;;;;;1.85;1.08;;;;;;;22.83;52.17;101530.44;5095142;28;20516;-74
2021/08/02 10:23:40;;;;;;;0.80;0.70;;;;;;;22.84;52.16;101521.66;5093940;28;20455;-74
2021/08/02 10:26:28;;;;;;;1.23;0.70;;;;;;;22.82;51.88;101520.78;5093768;28;20032;-74
2021/08/02 10:28:59;;;;;;;1.15;0.85;;;;;;;22.80;52.07;101522.56;5093726;28;20039;-74
2021/08/02 10:31:26;;;;;;;0.88;0.60;;;;;;;22.78;52.30;101524.34;5093715;28;20386;-72
2021/08/02 10:33:52;;;;;;;0.50;0.43;;;;;;;22.73;52.33;101516.44;5110456;28;20028;-72
2021/08/02 10:36:20;;;;;;;1.00;0.80;;;;;;;22.77;52.21;101519.97;5093554;28;20049;-73
2021/08/02 10:38:48;;;;;;;0.65;0.60;;;;;;;22.78;52.04;101514.69;5094715;28;20436;-73
2021/08/02 10:41:29;;;;;;;1.38;0.68;;;;;;;22.77;52.22;101518.19;5110472;28;20381;-72
2021/08/02 10:43:55;;;;;;;1.30;0.90;;;;;;;22.77;52.08;101515.56;5094575;28;20020;-72
2021/08/02 10:46:26;;;;;;;1.00;0.57;;;;;;;22.80;52.09;101527.84;5094333;28;20050;-73
2021/08/02 10:48:54;;;;;;;1.70;1.00;;;;;;;22.81;51.97;101532.22;5092505;28;20027;-72
2021/08/02 10:51:23;;;;;;;1.33;0.80;;;;;;;22.79;51.96;101526.09;5094490;28;20032;-72
2021/08/02 10:54:02;;;;;;;0.52;0.52;;;;;;;22.77;52.15;101520.84;5094184;28;20031;-72
2021/08/02 10:56:32;;;;;;;1.13;0.73;;;;;;;22.79;52.12;101529.59;5093094;28;20020;-72
2021/08/02 10:58:59;;;;;;;0.95;0.60;;;;;;;22.77;52.13;101522.59;5111075;28;20131;-72
2021/08/02 11:01:26;;;;;;;0.52;0.50;;;;;;;22.79;51.96;101528.72;5096847;28;20030;-73
2021/08/02 11:03:53;;;;;;;1.15;0.68;;;;;;;22.70;52.14;101515.63;5096404;28;20122;-72
2021/08/02 11:06:19;;;;;;;1.20;0.70;;;;;;;22.72;51.88;101522.59;5096685;28;20031;-72
2021/08/02 11:08:55;;;;;;;1.02;0.70;;;;;;;22.77;52.08;101530.50;5097120;28;20084;-73
2021/08/02 11:11:25;;;;;;;0.75;0.57;;;;;;;22.77;52.13;101527.88;5115721;28;20527;-73
2021/08/02 11:13:52;;;;;;;1.23;0.80;;;;;;;22.72;52.17;101532.31;5096380;28;20132;-72
2021/08/02 11:16:18;;;;;;;0.75;0.68;;;;;;;22.73;51.92;101532.28;5115301;28;20047;-73
2021/08/02 11:18:45;;;;;;;0.63;0.47;;;;;;;22.74;51.98;101533.13;5080898;28;20034;-74
2021/08/02 11:21:25;;;;;;;1.48;0.70;;;;;;;22.71;51.93;101534.06;5079847;28;20024;-73
2021/08/02 11:23:54;;;;;;;1.40;0.80;;;;;;;22.77;51.95;101530.50;5079294;28;20474;-73
2021/08/02 11:26:21;;;;;;;0.60;0.50;;;;;;;22.72;51.98;101533.16;5114392;28;20499;-73
2021/08/02 11:28:49;;;;;;;0.82;0.60;;;;;;;22.74;52.03;101534.00;5096259;28;20462;-72